sensor_id;sensor_type;location;lat;lon;timestamp;pressure;altitude;pressure_sealevel;temperature;humidity
40592;BME280;26301;42.832;23.918;2023-05-20T00:00:44;93550.66;;;10.55;100.00
40592;BME280;26301;42.832;23.918;2023-05-20T00:03:13;93562.31;;;10.45;100.00
40592;BME280;26301;42.832;23.918;2023-05-20T00:05:39;93569.75;;;10.42;100.00
40592;BME280;26301;42.832;23.918;2023-05-20T00:08:05;93551.50;;;10.25;100.00
40592;BME280;26301;42.832;23.918;2023-05-20T00:10:34;93570.63;;;10.36;100.00
40592;BME280;26301;42.832;23.918;2023-05-20T00:13:01;93552.66;;;10.29;100.00
40592;BME280;26301;42.832;23.918;2023-05-20T00:15:27;93552.38;;;10.19;100.00
40592;BME280;26301;42.832;23.918;2023-05-20T00:17:54;93574.09;;;10.29;100.00
40592;BME280;26301;42.832;23.918;2023-05-20T00:20:19;93570.25;;;10.20;100.00
40592;BME280;26301;42.832;23.918;2023-05-20T00:22:45;93577.84;;;10.15;100.00
40592;BME280;26301;42.832;23.918;2023-05-20T00:25:11;93576.16;;;10.09;100.00
40592;BME280;26301;42.832;23.918;2023-05-20T00:27:41;93549.97;;;9.94;100.00
40592;BME280;26301;42.832;23.918;2023-05-20T00:30:08;93560.97;;;10.01;100.00
40592;BME280;26301;42.832;23.918;2023-05-20T00:32:35;93566.31;;;9.76;100.00
40592;BME280;26301;42.832;23.918;2023-05-20T00:35:02;93566.31;;;9.76;100.00
40592;BME280;26301;42.832;23.918;2023-05-20T00:37:28;93548.06;;;9.59;100.00
40592;BME280;26301;42.832;23.918;2023-05-20T00:39:54;93551.50;;;9.53;100.00
40592;BME280;26301;42.832;23.918;2023-05-20T00:42:27;93539.09;;;9.31;100.00
40592;BME280;26301;42.832;23.918;2023-05-20T00:44:54;93545.13;;;9.25;100.00
40592;BME280;26301;42.832;23.918;2023-05-20T00:47:24;93554.56;;;9.31;100.00
40592;BME280;26301;42.832;23.918;2023-05-20T00:49:51;93554.56;;;9.31;100.00
40592;BME280;26301;42.832;23.918;2023-05-20T00:52:18;93547.53;;;9.20;100.00
40592;BME280;26301;42.832;23.918;2023-05-20T00:54:44;93559.28;;;9.16;100.00
40592;BME280;26301;42.832;23.918;2023-05-20T00:57:10;93562.72;;;9.10;100.00
40592;BME280;26301;42.832;23.918;2023-05-20T00:59:37;93544.84;;;8.97;100.00
40592;BME280;26301;42.832;23.918;2023-05-20T01:02:04;93564.19;;;9.06;100.00
40592;BME280;26301;42.832;23.918;2023-05-20T01:04:31;93554.72;;;9.00;100.00
40592;BME280;26301;42.832;23.918;2023-05-20T01:07:02;93557.16;;;8.95;100.00
40592;BME280;26301;42.832;23.918;2023-05-20T01:09:29;93541.25;;;8.79;100.00
40592;BME280;26301;42.832;23.918;2023-05-20T01:12:14;93544.25;;;8.76;100.00
40592;BME280;26301;42.832;23.918;2023-05-20T01:15:04;93554.56;;;8.76;100.00
40592;BME280;26301;42.832;23.918;2023-05-20T01:17:32;93550.41;;;8.75;100.00
40592;BME280;26301;42.832;23.918;2023-05-20T01:20:03;93549.84;;;8.73;100.00
40592;BME280;26301;42.832;23.918;2023-05-20T01:22:30;93529.16;;;8.61;100.00
40592;BME280;26301;42.832;23.918;2023-05-20T01:24:56;93522.22;;;8.62;100.00
40592;BME280;26301;42.832;23.918;2023-05-20T01:27:22;93538.59;;;8.67;100.00
40592;BME280;26301;42.832;23.918;2023-05-20T01:29:50;93521.69;;;8.53;100.00
40592;BME280;26301;42.832;23.918;2023-05-20T01:32:18;93544.38;;;8.63;100.00
40592;BME280;26301;42.832;23.918;2023-05-20T01:34:47;93526.25;;;8.51;100.00
40592;BME280;26301;42.832;23.918;2023-05-20T01:37:14;93536.72;;;8.56;100.00
40592;BME280;26301;42.832;23.918;2023-05-20T01:39:43;93542.81;;;8.62;100.00
40592;BME280;26301;42.832;23.918;2023-05-20T01:42:10;93536.78;;;8.50;100.00
40592;BME280;26301;42.832;23.918;2023-05-20T01:44:36;93522.06;;;8.32;100.00
40592;BME280;26301;42.832;23.918;2023-05-20T01:47:03;93541.56;;;8.46;100.00
40592;BME280;26301;42.832;23.918;2023-05-20T01:49:29;93519.31;;;8.27;100.00
40592;BME280;26301;42.832;23.918;2023-05-20T01:51:55;93520.94;;;8.21;100.00
40592;BME280;26301;42.832;23.918;2023-05-20T01:54:21;93537.94;;;8.29;100.00
40592;BME280;26301;42.832;23.918;2023-05-20T01:56:48;93519.22;;;8.15;100.00
40592;BME280;26301;42.832;23.918;2023-05-20T01:59:14;93530.53;;;8.14;100.00
40592;BME280;26301;42.832;23.918;2023-05-20T02:01:41;93535.19;;;8.23;100.00
40592;BME280;26301;42.832;23.918;2023-05-20T02:04:07;93530.47;;;8.20;100.00
40592;BME280;26301;42.832;23.918;2023-05-20T02:06:33;93527.69;;;8.22;100.00
40592;BME280;26301;42.832;23.918;2023-05-20T02:08:59;93527.94;;;8.14;100.00
40592;BME280;26301;42.832;23.918;2023-05-20T02:11:25;93510.06;;;8.00;100.00
40592;BME280;26301;42.832;23.918;2023-05-20T02:13:51;93527.38;;;8.12;100.00
40592;BME280;26301;42.832;23.918;2023-05-20T02:16:17;93513.97;;;8.03;100.00
40592;BME280;26301;42.832;23.918;2023-05-20T02:18:43;93517.50;;;8.09;100.00
40592;BME280;26301;42.832;23.918;2023-05-20T02:21:10;93517.59;;;8.20;100.00
40592;BME280;26301;42.832;23.918;2023-05-20T02:23:35;93523.16;;;8.17;100.00
40592;BME280;26301;42.832;23.918;2023-05-20T02:26:03;93524.13;;;8.23;100.00
40592;BME280;26301;42.832;23.918;2023-05-20T02:28:28;93510.38;;;8.11;100.00
40592;BME280;26301;42.832;23.918;2023-05-20T02:30:54;93525.69;;;8.24;100.00
40592;BME280;26301;42.832;23.918;2023-05-20T02:33:20;93523.34;;;8.22;100.00
40592;BME280;26301;42.832;23.918;2023-05-20T02:35:46;93519.97;;;8.22;100.00
40592;BME280;26301;42.832;23.918;2023-05-20T02:38:12;93530.38;;;8.34;100.00
40592;BME280;26301;42.832;23.918;2023-05-20T02:40:38;93521.84;;;8.33;100.00
40592;BME280;26301;42.832;23.918;2023-05-20T02:43:04;93535.41;;;8.47;100.00
40592;BME280;26301;42.832;23.918;2023-05-20T02:45:30;93534.16;;;8.56;100.00
40592;BME280;26301;42.832;23.918;2023-05-20T02:47:56;93518.78;;;8.50;100.00
40592;BME280;26301;42.832;23.918;2023-05-20T02:50:22;93531.81;;;8.55;100.00
40592;BME280;26301;42.832;23.918;2023-05-20T02:52:48;93526.75;;;8.41;100.00
40592;BME280;26301;42.832;23.918;2023-05-20T02:55:14;93538.00;;;8.47;100.00
40592;BME280;26301;42.832;23.918;2023-05-20T02:57:40;93524.63;;;8.32;100.00
40592;BME280;26301;42.832;23.918;2023-05-20T03:00:07;93534.16;;;8.31;100.00
40592;BME280;26301;42.832;23.918;2023-05-20T03:02:37;93550.69;;;8.42;100.00
40592;BME280;26301;42.832;23.918;2023-05-20T03:05:03;93555.84;;;8.42;100.00
40592;BME280;26301;42.832;23.918;2023-05-20T03:07:30;93540.69;;;8.27;100.00
40592;BME280;26301;42.832;23.918;2023-05-20T03:09:59;93559.03;;;8.37;100.00
40592;BME280;26301;42.832;23.918;2023-05-20T03:12:27;93552.53;;;8.35;100.00
40592;BME280;26301;42.832;23.918;2023-05-20T03:14:53;93551.00;;;8.27;100.00
40592;BME280;26301;42.832;23.918;2023-05-20T03:17:22;93551.28;;;8.19;100.00
40592;BME280;26301;42.832;23.918;2023-05-20T03:19:48;93523.47;;;8.02;100.00
40592;BME280;26301;42.832;23.918;2023-05-20T03:22:14;93531.19;;;8.02;100.00
40592;BME280;26301;42.832;23.918;2023-05-20T03:24:40;93555.31;;;8.08;100.00
40592;BME280;26301;42.832;23.918;2023-05-20T03:27:07;93534.88;;;7.88;100.00
40592;BME280;26301;42.832;23.918;2023-05-20T03:29:33;93543.69;;;7.99;100.00
40592;BME280;26301;42.832;23.918;2023-05-20T03:31:59;93550.03;;;7.96;100.00
40592;BME280;26301;42.832;23.918;2023-05-20T03:34:25;93554.63;;;7.94;100.00
40592;BME280;26301;42.832;23.918;2023-05-20T03:36:52;93557.19;;;7.94;100.00
40592;BME280;26301;42.832;23.918;2023-05-20T03:39:18;93556.59;;;7.92;100.00
40592;BME280;26301;42.832;23.918;2023-05-20T03:41:44;93558.94;;;8.00;100.00
40592;BME280;26301;42.832;23.918;2023-05-20T03:44:10;93540.16;;;7.93;100.00
40592;BME280;26301;42.832;23.918;2023-05-20T03:46:36;93541.34;;;7.97;100.00
40592;BME280;26301;42.832;23.918;2023-05-20T03:49:02;93560.56;;;8.20;100.00
40592;BME280;26301;42.832;23.918;2023-05-20T03:51:29;93542.53;;;8.20;100.00
40592;BME280;26301;42.832;23.918;2023-05-20T03:53:54;93554.16;;;8.54;100.00
40592;BME280;26301;42.832;23.918;2023-05-20T03:56:20;93543.00;;;8.60;100.00
40592;BME280;26301;42.832;23.918;2023-05-20T03:58:46;93564.38;;;8.86;100.00
40592;BME280;26301;42.832;23.918;2023-05-20T04:01:12;93552.34;;;8.98;100.00
40592;BME280;26301;42.832;23.918;2023-05-20T04:03:40;93553.88;;;9.06;100.00
40592;BME280;26301;42.832;23.918;2023-05-20T04:06:07;93554.34;;;9.33;100.00
40592;BME280;26301;42.832;23.918;2023-05-20T04:08:33;93567.25;;;9.63;100.00
40592;BME280;26301;42.832;23.918;2023-05-20T04:11:01;93566.19;;;9.82;100.00
40592;BME280;26301;42.832;23.918;2023-05-20T04:13:28;93538.84;;;9.81;100.00
40592;BME280;26301;42.832;23.918;2023-05-20T04:15:53;93565.59;;;10.11;100.00
40592;BME280;26301;42.832;23.918;2023-05-20T04:18:20;93560.75;;;10.33;100.00
40592;BME280;26301;42.832;23.918;2023-05-20T04:20:46;93544.81;;;10.47;100.00
40592;BME280;26301;42.832;23.918;2023-05-20T04:23:12;93553.00;;;10.68;100.00
40592;BME280;26301;42.832;23.918;2023-05-20T04:25:38;93549.50;;;10.86;100.00
40592;BME280;26301;42.832;23.918;2023-05-20T04:28:06;93556.66;;;11.19;100.00
40592;BME280;26301;42.832;23.918;2023-05-20T04:30:35;93545.03;;;11.33;100.00
40592;BME280;26301;42.832;23.918;2023-05-20T04:33:01;93555.47;;;11.50;100.00
40592;BME280;26301;42.832;23.918;2023-05-20T04:35:30;93544.94;;;11.68;100.00
40592;BME280;26301;42.832;23.918;2023-05-20T04:37:56;93559.81;;;11.90;98.55
40592;BME280;26301;42.832;23.918;2023-05-20T04:40:22;93545.28;;;12.01;97.37
40592;BME280;26301;42.832;23.918;2023-05-20T04:42:48;93545.97;;;12.30;97.04
40592;BME280;26301;42.832;23.918;2023-05-20T04:45:14;93565.38;;;12.44;96.29
40592;BME280;26301;42.832;23.918;2023-05-20T04:47:41;93546.00;;;12.64;94.90
40592;BME280;26301;42.832;23.918;2023-05-20T04:50:09;93550.19;;;12.87;94.10
40592;BME280;26301;42.832;23.918;2023-05-20T04:52:36;93548.09;;;13.05;92.69
40592;BME280;26301;42.832;23.918;2023-05-20T04:55:05;93554.13;;;13.28;92.29
40592;BME280;26301;42.832;23.918;2023-05-20T04:57:31;93549.94;;;13.49;91.36
40592;BME280;26301;42.832;23.918;2023-05-20T04:59:59;93555.97;;;13.77;90.16
40592;BME280;26301;42.832;23.918;2023-05-20T05:02:25;93558.66;;;14.14;87.66
40592;BME280;26301;42.832;23.918;2023-05-20T05:04:51;93557.88;;;14.46;87.17
40592;BME280;26301;42.832;23.918;2023-05-20T05:07:17;93558.38;;;14.75;87.64
40592;BME280;26301;42.832;23.918;2023-05-20T05:09:43;93547.84;;;14.97;84.54
40592;BME280;26301;42.832;23.918;2023-05-20T05:12:08;93560.25;;;15.37;83.00
40592;BME280;26301;42.832;23.918;2023-05-20T05:14:34;93564.28;;;15.60;82.82
40592;BME280;26301;42.832;23.918;2023-05-20T05:17:00;93541.41;;;15.72;82.12
40592;BME280;26301;42.832;23.918;2023-05-20T05:19:26;93542.00;;;15.90;79.92
40592;BME280;26301;42.832;23.918;2023-05-20T05:21:52;93549.06;;;16.15;80.74
40592;BME280;26301;42.832;23.918;2023-05-20T05:24:18;93534.75;;;16.28;80.50
40592;BME280;26301;42.832;23.918;2023-05-20T05:26:44;93538.13;;;16.49;78.83
40592;BME280;26301;42.832;23.918;2023-05-20T05:29:10;93541.25;;;16.61;76.74
40592;BME280;26301;42.832;23.918;2023-05-20T05:31:36;93528.22;;;16.76;78.15
40592;BME280;26301;42.832;23.918;2023-05-20T05:34:02;93542.03;;;16.92;75.66
40592;BME280;26301;42.832;23.918;2023-05-20T05:36:32;93531.84;;;16.96;72.55
40592;BME280;26301;42.832;23.918;2023-05-20T05:38:58;93533.38;;;17.12;73.01
40592;BME280;26301;42.832;23.918;2023-05-20T05:41:24;93530.47;;;17.19;70.16
40592;BME280;26301;42.832;23.918;2023-05-20T05:43:51;93532.25;;;17.28;72.20
40592;BME280;26301;42.832;23.918;2023-05-20T05:46:17;93518.97;;;17.30;69.66
40592;BME280;26301;42.832;23.918;2023-05-20T05:48:43;93530.91;;;17.46;68.16
40592;BME280;26301;42.832;23.918;2023-05-20T05:51:13;93533.97;;;17.64;68.76
40592;BME280;26301;42.832;23.918;2023-05-20T05:53:40;93515.38;;;17.70;67.58
40592;BME280;26301;42.832;23.918;2023-05-20T05:56:05;93519.25;;;17.83;65.23
40592;BME280;26301;42.832;23.918;2023-05-20T05:58:31;93518.91;;;17.95;62.19
40592;BME280;26301;42.832;23.918;2023-05-20T06:00:58;93534.19;;;18.17;64.66
40592;BME280;26301;42.832;23.918;2023-05-20T06:03:24;93515.09;;;18.21;60.09
40592;BME280;26301;42.832;23.918;2023-05-20T06:05:50;93523.56;;;18.42;63.96
40592;BME280;26301;42.832;23.918;2023-05-20T06:08:16;93516.44;;;18.48;60.32
40592;BME280;26301;42.832;23.918;2023-05-20T06:10:47;93525.69;;;18.69;59.76
40592;BME280;26301;42.832;23.918;2023-05-20T06:13:13;93535.69;;;18.91;60.65
40592;BME280;26301;42.832;23.918;2023-05-20T06:15:39;93534.34;;;18.99;61.78
40592;BME280;26301;42.832;23.918;2023-05-20T06:18:05;93524.09;;;19.03;60.99
40592;BME280;26301;42.832;23.918;2023-05-20T06:20:32;93521.13;;;19.09;57.32
40592;BME280;26301;42.832;23.918;2023-05-20T06:22:58;93528.22;;;19.09;60.84
40592;BME280;26301;42.832;23.918;2023-05-20T06:25:24;93497.28;;;18.87;60.21
40592;BME280;26301;42.832;23.918;2023-05-20T06:27:50;93537.53;;;19.20;58.90
40592;BME280;26301;42.832;23.918;2023-05-20T06:30:16;93553.44;;;19.24;58.50
40592;BME280;26301;42.832;23.918;2023-05-20T06:32:42;93557.19;;;19.17;58.77
40592;BME280;26301;42.832;23.918;2023-05-20T06:35:10;93532.19;;;19.01;63.29
40592;BME280;26301;42.832;23.918;2023-05-20T06:37:36;93543.31;;;19.17;60.82
40592;BME280;26301;42.832;23.918;2023-05-20T06:40:03;93548.56;;;19.17;59.68
40592;BME280;26301;42.832;23.918;2023-05-20T06:42:29;93547.47;;;19.18;59.24
40592;BME280;26301;42.832;23.918;2023-05-20T06:44:55;93544.13;;;19.36;60.34
40592;BME280;26301;42.832;23.918;2023-05-20T06:47:21;93547.03;;;19.59;59.53
40592;BME280;26301;42.832;23.918;2023-05-20T06:49:47;93526.53;;;19.66;58.61
40592;BME280;26301;42.832;23.918;2023-05-20T06:52:13;93540.09;;;19.92;58.25
40592;BME280;26301;42.832;23.918;2023-05-20T06:54:39;93523.75;;;19.76;57.62
40592;BME280;26301;42.832;23.918;2023-05-20T06:57:09;93522.78;;;19.91;54.74
40592;BME280;26301;42.832;23.918;2023-05-20T06:59:36;93519.91;;;19.93;57.63
40592;BME280;26301;42.832;23.918;2023-05-20T07:02:02;93526.13;;;20.16;56.97
40592;BME280;26301;42.832;23.918;2023-05-20T07:04:29;93529.03;;;20.14;56.88
40592;BME280;26301;42.832;23.918;2023-05-20T07:06:55;93530.81;;;20.19;54.34
40592;BME280;26301;42.832;23.918;2023-05-20T07:09:21;93536.38;;;20.12;51.68
40592;BME280;26301;42.832;23.918;2023-05-20T07:11:47;93515.97;;;20.09;56.67
40592;BME280;26301;42.832;23.918;2023-05-20T07:14:15;93523.19;;;20.36;54.18
40592;BME280;26301;42.832;23.918;2023-05-20T07:16:41;93529.34;;;20.45;49.48
40592;BME280;26301;42.832;23.918;2023-05-20T07:19:07;93526.88;;;20.35;50.57
40592;BME280;26301;42.832;23.918;2023-05-20T07:21:33;93527.63;;;20.54;49.71
40592;BME280;26301;42.832;23.918;2023-05-20T07:23:59;93527.63;;;20.54;52.83
40592;BME280;26301;42.832;23.918;2023-05-20T07:26:25;93532.69;;;20.84;50.60
40592;BME280;26301;42.832;23.918;2023-05-20T07:28:51;93527.28;;;20.61;50.95
40592;BME280;26301;42.832;23.918;2023-05-20T07:31:17;93527.50;;;20.78;50.94
40592;BME280;26301;42.832;23.918;2023-05-20T07:33:43;93521.53;;;21.06;53.04
40592;BME280;26301;42.832;23.918;2023-05-20T07:36:09;93536.94;;;21.40;49.72
40592;BME280;26301;42.832;23.918;2023-05-20T07:38:35;93510.25;;;21.33;50.69
40592;BME280;26301;42.832;23.918;2023-05-20T07:41:01;93520.00;;;21.60;50.42
40592;BME280;26301;42.832;23.918;2023-05-20T07:43:27;93522.78;;;21.91;49.92
40592;BME280;26301;42.832;23.918;2023-05-20T07:45:54;93504.03;;;21.70;46.60
40592;BME280;26301;42.832;23.918;2023-05-20T07:48:20;93506.16;;;21.68;47.95
40592;BME280;26301;42.832;23.918;2023-05-20T07:50:46;93516.19;;;21.66;47.72
40592;BME280;26301;42.832;23.918;2023-05-20T07:53:12;93508.59;;;21.64;46.73
40592;BME280;26301;42.832;23.918;2023-05-20T07:55:39;93491.06;;;21.74;47.57
40592;BME280;26301;42.832;23.918;2023-05-20T07:58:05;93513.19;;;22.09;48.04
40592;BME280;26301;42.832;23.918;2023-05-20T08:00:31;93503.81;;;22.17;46.68
40592;BME280;26301;42.832;23.918;2023-05-20T08:02:57;93504.88;;;22.15;46.85
40592;BME280;26301;42.832;23.918;2023-05-20T08:05:23;93518.72;;;22.07;48.16
40592;BME280;26301;42.832;23.918;2023-05-20T08:07:49;93517.09;;;21.98;45.24
40592;BME280;26301;42.832;23.918;2023-05-20T08:10:15;93515.22;;;21.76;47.27
40592;BME280;26301;42.832;23.918;2023-05-20T08:12:41;93504.56;;;21.81;47.66
40592;BME280;26301;42.832;23.918;2023-05-20T08:15:08;93500.56;;;21.97;46.72
40592;BME280;26301;42.832;23.918;2023-05-20T08:17:34;93511.66;;;21.94;46.01
40592;BME280;26301;42.832;23.918;2023-05-20T08:20:00;93502.31;;;21.52;49.01
40592;BME280;26301;42.832;23.918;2023-05-20T08:22:27;93500.81;;;21.32;47.50
40592;BME280;26301;42.832;23.918;2023-05-20T08:24:53;93501.81;;;21.36;47.11
40592;BME280;26301;42.832;23.918;2023-05-20T08:27:19;93503.53;;;21.27;48.24
40592;BME280;26301;42.832;23.918;2023-05-20T08:29:45;93492.66;;;21.47;47.93
40592;BME280;26301;42.832;23.918;2023-05-20T08:32:11;93509.09;;;21.66;50.11
40592;BME280;26301;42.832;23.918;2023-05-20T08:34:37;93498.44;;;21.85;47.75
40592;BME280;26301;42.832;23.918;2023-05-20T08:37:03;93499.84;;;22.05;47.25
40592;BME280;26301;42.832;23.918;2023-05-20T08:39:29;93488.78;;;21.95;46.02
40592;BME280;26301;42.832;23.918;2023-05-20T08:41:57;93504.47;;;21.86;47.54
40592;BME280;26301;42.832;23.918;2023-05-20T08:44:23;93507.06;;;22.00;49.79
40592;BME280;26301;42.832;23.918;2023-05-20T08:46:50;93494.19;;;22.12;45.02
40592;BME280;26301;42.832;23.918;2023-05-20T08:49:17;93493.78;;;22.05;44.39
40592;BME280;26301;42.832;23.918;2023-05-20T08:51:43;93507.00;;;22.27;44.21
40592;BME280;26301;42.832;23.918;2023-05-20T08:54:12;93506.47;;;22.39;43.97
40592;BME280;26301;42.832;23.918;2023-05-20T08:56:39;93501.16;;;21.94;45.01
40592;BME280;26301;42.832;23.918;2023-05-20T08:59:07;93490.22;;;22.01;46.94
40592;BME280;26301;42.832;23.918;2023-05-20T09:01:37;93498.34;;;22.13;45.52
40592;BME280;26301;42.832;23.918;2023-05-20T09:04:06;93485.53;;;21.98;46.16
40592;BME280;26301;42.832;23.918;2023-05-20T09:06:42;93464.19;;;21.77;47.90
40592;BME280;26301;42.832;23.918;2023-05-20T09:09:10;93500.91;;;22.04;44.82
40592;BME280;26301;42.832;23.918;2023-05-20T09:11:36;93505.72;;;21.88;45.10
40592;BME280;26301;42.832;23.918;2023-05-20T09:14:02;93485.81;;;21.96;45.37
40592;BME280;26301;42.832;23.918;2023-05-20T09:16:28;93493.28;;;22.17;45.21
40592;BME280;26301;42.832;23.918;2023-05-20T09:18:55;93470.31;;;22.08;45.96
40592;BME280;26301;42.832;23.918;2023-05-20T09:21:25;93472.44;;;22.43;44.46
40592;BME280;26301;42.832;23.918;2023-05-20T09:23:51;93464.53;;;22.74;47.04
40592;BME280;26301;42.832;23.918;2023-05-20T09:26:18;93472.53;;;22.91;45.34
40592;BME280;26301;42.832;23.918;2023-05-20T09:28:45;93459.75;;;23.07;44.12
40592;BME280;26301;42.832;23.918;2023-05-20T09:31:13;93448.94;;;22.86;43.45
40592;BME280;26301;42.832;23.918;2023-05-20T09:33:40;93451.53;;;23.00;42.00
40592;BME280;26301;42.832;23.918;2023-05-20T09:36:09;93456.88;;;23.26;42.75
40592;BME280;26301;42.832;23.918;2023-05-20T09:38:38;93458.09;;;23.20;44.31
40592;BME280;26301;42.832;23.918;2023-05-20T09:41:14;93444.47;;;23.26;42.72
40592;BME280;26301;42.832;23.918;2023-05-20T09:43:40;93453.97;;;23.45;44.71
40592;BME280;26301;42.832;23.918;2023-05-20T09:46:07;93459.84;;;23.33;44.82
40592;BME280;26301;42.832;23.918;2023-05-20T09:48:36;93453.28;;;23.22;41.98
40592;BME280;26301;42.832;23.918;2023-05-20T09:51:04;93464.00;;;23.34;42.67
40592;BME280;26301;42.832;23.918;2023-05-20T09:53:31;93426.31;;;23.16;45.28
40592;BME280;26301;42.832;23.918;2023-05-20T09:55:57;93443.72;;;23.35;42.13
40592;BME280;26301;42.832;23.918;2023-05-20T09:58:23;93462.03;;;23.48;46.33
40592;BME280;26301;42.832;23.918;2023-05-20T10:00:50;93460.13;;;23.23;43.30
40592;BME280;26301;42.832;23.918;2023-05-20T10:03:17;93447.69;;;23.15;44.57
40592;BME280;26301;42.832;23.918;2023-05-20T10:05:55;93446.97;;;23.32;44.24
40592;BME280;26301;42.832;23.918;2023-05-20T10:09:04;93442.69;;;23.53;45.43
40592;BME280;26301;42.832;23.918;2023-05-20T10:11:32;93448.59;;;23.59;43.54
40592;BME280;26301;42.832;23.918;2023-05-20T10:14:12;93441.53;;;23.37;45.39
40592;BME280;26301;42.832;23.918;2023-05-20T10:19:43;93441.69;;;23.23;47.69
40592;BME280;26301;42.832;23.918;2023-05-20T10:22:10;93438.78;;;22.93;43.76
40592;BME280;26301;42.832;23.918;2023-05-20T10:24:41;93426.66;;;22.52;44.72
40592;BME280;26301;42.832;23.918;2023-05-20T10:27:12;93437.75;;;22.41;47.73
40592;BME280;26301;42.832;23.918;2023-05-20T10:29:54;93442.06;;;22.68;45.47
40592;BME280;26301;42.832;23.918;2023-05-20T10:32:30;93439.50;;;22.85;46.04
40592;BME280;26301;42.832;23.918;2023-05-20T10:35:03;93430.25;;;22.56;45.71
40592;BME280;26301;42.832;23.918;2023-05-20T10:37:33;93419.53;;;22.53;45.08
40592;BME280;26301;42.832;23.918;2023-05-20T10:40:06;93428.91;;;22.68;45.89
40592;BME280;26301;42.832;23.918;2023-05-20T10:42:33;93415.28;;;22.74;46.03
40592;BME280;26301;42.832;23.918;2023-05-20T10:44:59;93410.06;;;22.83;47.51
40592;BME280;26301;42.832;23.918;2023-05-20T10:47:25;93430.34;;;22.82;45.76
40592;BME280;26301;42.832;23.918;2023-05-20T10:49:52;93430.19;;;22.79;42.82
40592;BME280;26301;42.832;23.918;2023-05-20T10:52:19;93418.88;;;22.47;45.70
40592;BME280;26301;42.832;23.918;2023-05-20T10:54:55;93433.22;;;22.32;45.08
40592;BME280;26301;42.832;23.918;2023-05-20T10:57:22;93420.53;;;22.34;45.26
40592;BME280;26301;42.832;23.918;2023-05-20T10:59:49;93436.78;;;22.36;46.63
40592;BME280;26301;42.832;23.918;2023-05-20T11:02:16;93433.44;;;22.22;48.99
40592;BME280;26301;42.832;23.918;2023-05-20T11:04:44;93436.09;;;22.22;47.64
40592;BME280;26301;42.832;23.918;2023-05-20T11:07:10;93439.63;;;22.18;46.93
40592;BME280;26301;42.832;23.918;2023-05-20T11:09:36;93443.53;;;22.29;49.90
40592;BME280;26301;42.832;23.918;2023-05-20T11:12:02;93442.44;;;22.21;48.87
40592;BME280;26301;42.832;23.918;2023-05-20T11:14:29;93422.00;;;22.18;49.58
40592;BME280;26301;42.832;23.918;2023-05-20T11:16:58;93436.94;;;21.95;48.98
40592;BME280;26301;42.832;23.918;2023-05-20T11:19:27;93466.66;;;21.59;46.65
40592;BME280;26301;42.832;23.918;2023-05-20T11:21:53;93495.97;;;20.97;46.73
40592;BME280;26301;42.832;23.918;2023-05-20T11:24:24;93511.53;;;19.72;52.22
40592;BME280;26301;42.832;23.918;2023-05-20T11:26:53;93513.88;;;19.25;55.59
40592;BME280;26301;42.832;23.918;2023-05-20T11:29:19;93514.13;;;19.05;58.94
40592;BME280;26301;42.832;23.918;2023-05-20T11:31:49;93515.22;;;18.75;59.72
40592;BME280;26301;42.832;23.918;2023-05-20T11:34:19;93515.31;;;18.59;61.51
40592;BME280;26301;42.832;23.918;2023-05-20T11:36:46;93501.25;;;18.50;64.65
40592;BME280;26301;42.832;23.918;2023-05-20T11:39:13;93478.53;;;18.45;65.62
40592;BME280;26301;42.832;23.918;2023-05-20T11:41:41;93492.59;;;18.55;64.39
40592;BME280;26301;42.832;23.918;2023-05-20T11:44:11;93505.31;;;18.66;63.32
40592;BME280;26301;42.832;23.918;2023-05-20T11:46:43;93502.47;;;18.63;63.32
40592;BME280;26301;42.832;23.918;2023-05-20T11:49:09;93485.69;;;18.00;69.74
40592;BME280;26301;42.832;23.918;2023-05-20T11:51:37;93486.66;;;17.65;70.55
40592;BME280;26301;42.832;23.918;2023-05-20T11:54:05;93479.41;;;17.57;70.36
40592;BME280;26301;42.832;23.918;2023-05-20T11:56:35;93472.66;;;17.46;72.75
40592;BME280;26301;42.832;23.918;2023-05-20T11:59:03;93473.22;;;17.43;70.92
40592;BME280;26301;42.832;23.918;2023-05-20T12:01:31;93458.53;;;17.52;73.58
40592;BME280;26301;42.832;23.918;2023-05-20T12:03:59;93465.53;;;17.62;73.51
40592;BME280;26301;42.832;23.918;2023-05-20T12:06:25;93460.13;;;17.92;73.64
40592;BME280;26301;42.832;23.918;2023-05-20T12:08:51;93437.91;;;17.95;73.73
40592;BME280;26301;42.832;23.918;2023-05-20T12:11:17;93455.66;;;17.98;69.83
40592;BME280;26301;42.832;23.918;2023-05-20T12:13:43;93437.09;;;17.99;69.04
40592;BME280;26301;42.832;23.918;2023-05-20T12:16:09;93431.88;;;18.28;69.91
40592;BME280;26301;42.832;23.918;2023-05-20T12:18:34;93431.88;;;18.28;72.65
40592;BME280;26301;42.832;23.918;2023-05-20T12:21:01;93436.09;;;18.54;74.96
40592;BME280;26301;42.832;23.918;2023-05-20T12:23:27;93409.47;;;18.76;72.23
40592;BME280;26301;42.832;23.918;2023-05-20T12:25:55;93424.81;;;19.06;67.91
40592;BME280;26301;42.832;23.918;2023-05-20T12:28:20;93409.06;;;19.11;64.30
40592;BME280;26301;42.832;23.918;2023-05-20T12:30:47;93391.59;;;19.26;63.82
40592;BME280;26301;42.832;23.918;2023-05-20T12:33:13;93394.22;;;19.63;58.77
40592;BME280;26301;42.832;23.918;2023-05-20T12:35:41;93401.81;;;19.84;62.98
40592;BME280;26301;42.832;23.918;2023-05-20T12:38:08;93407.69;;;19.95;53.80
40592;BME280;26301;42.832;23.918;2023-05-20T12:40:34;93394.97;;;20.02;56.31
40592;BME280;26301;42.832;23.918;2023-05-20T12:43:02;93382.44;;;20.13;55.95
40592;BME280;26301;42.832;23.918;2023-05-20T12:45:28;93383.78;;;20.29;55.95
40592;BME280;26301;42.832;23.918;2023-05-20T12:47:55;93386.81;;;20.50;49.75
40592;BME280;26301;42.832;23.918;2023-05-20T12:50:21;93391.59;;;20.62;49.33
40592;BME280;26301;42.832;23.918;2023-05-20T12:52:48;93341.72;;;20.48;56.24